map of RUH home
Great Circle Mapper logo
RUH - Airport
Location
City:  Riyadh, Saudi Arabia
Name:King Khalid Airport
ICAO / IATA:OERK / RUH

Details
Type:Airport (Aerodrome, Airfield)
Use:Public/Civil, Military, International (customs port of entry)
Latitude:2457'28"N (24.957640)
Longitude:4641'56"E (46.698776)
Datum:WGS 1984
Elevation:2049 ft (625 m)
Runways:2
Longest:13796 × 197 ft (4205 × 60 m), paved

Time
Time Zone:UTC+3
Local Time:

Weather
METAR:OERK 231500Z 21005KT CAVOK 37/04 Q1012 NOSIG
TAF:OERK 231030Z 2312/2418 27012KT 7000 FEW040 SCT100
BECMG 2320/2322 06014KT
TEMPO 2320/2406 4000 BLDU

Related Locations
Nearby:
Farthest:GMR: 12272 mi / 19750 km
Mangareva [Totegegie], Gambier Islands, PF

Find:

   beyond  
but within

Other Information
Maps:
NOTAMs:
Links:
Sources:

  
flag of Saudi Arabia   

Sectional Chart

Flight Planning
at skyvector.com

Satellite Image

Google Maps Satellite View

 

Copyright © 2004-2014 Karl L. Swartz. All rights reserved.
The Great Circle Mapper name and logo are trademarks of the Great Circle Mapper.
All other trademarks mentioned herein belong to their respective owners.
Please see credits for attibutions and further copyright information.

  Follow gcmap on Facebook Follow gcmap on Twitter

hCard Microformat

Geo Microformat